sensor_id;sensor_type;location;lat;lon;timestamp;P1;durP1;ratioP1;P2;durP2;ratioP2
25609;SDS011;13479;49.044;8.716;2023-06-22T04:02:09;18.08;;;10.23;;
25609;SDS011;13479;49.044;8.716;2023-06-22T04:04:34;18.98;;;10.93;;
25609;SDS011;13479;49.044;8.716;2023-06-22T04:07:00;19.08;;;11.57;;
25609;SDS011;13479;49.044;8.716;2023-06-22T04:09:25;16.00;;;10.43;;
25609;SDS011;13479;49.044;8.716;2023-06-22T04:11:51;20.38;;;11.40;;
25609;SDS011;13479;49.044;8.716;2023-06-22T04:14:17;20.23;;;11.98;;
25609;SDS011;13479;49.044;8.716;2023-06-22T04:16:42;17.33;;;10.65;;
25609;SDS011;13479;49.044;8.716;2023-06-22T04:19:07;18.92;;;10.15;;
25609;SDS011;13479;49.044;8.716;2023-06-22T04:21:38;15.63;;;9.77;;
25609;SDS011;13479;49.044;8.716;2023-06-22T04:24:03;20.83;;;10.70;;
25609;SDS011;13479;49.044;8.716;2023-06-22T04:26:28;15.65;;;9.75;;
25609;SDS011;13479;49.044;8.716;2023-06-22T04:28:54;18.48;;;10.32;;
25609;SDS011;13479;49.044;8.716;2023-06-22T04:31:20;15.65;;;9.80;;
25609;SDS011;13479;49.044;8.716;2023-06-22T04:33:46;17.95;;;10.05;;
25609;SDS011;13479;49.044;8.716;2023-06-22T04:36:11;16.88;;;10.02;;
25609;SDS011;13479;49.044;8.716;2023-06-22T04:38:39;12.50;;;8.93;;
25609;SDS011;13479;49.044;8.716;2023-06-22T04:41:05;13.30;;;8.80;;
25609;SDS011;13479;49.044;8.716;2023-06-22T04:43:31;13.23;;;8.50;;
25609;SDS011;13479;49.044;8.716;2023-06-22T04:45:56;17.73;;;9.32;;
25609;SDS011;13479;49.044;8.716;2023-06-22T04:48:28;12.65;;;8.73;;
25609;SDS011;13479;49.044;8.716;2023-06-22T04:50:57;13.05;;;8.25;;
25609;SDS011;13479;49.044;8.716;2023-06-22T04:53:28;13.85;;;8.43;;
25609;SDS011;13479;49.044;8.716;2023-06-22T04:55:54;14.57;;;8.75;;
25609;SDS011;13479;49.044;8.716;2023-06-22T04:58:20;12.27;;;8.38;;
25609;SDS011;13479;49.044;8.716;2023-06-22T05:00:46;14.32;;;7.93;;
25609;SDS011;13479;49.044;8.716;2023-06-22T05:03:12;13.27;;;9.40;;
25609;SDS011;13479;49.044;8.716;2023-06-22T05:05:37;15.10;;;8.32;;
25609;SDS011;13479;49.044;8.716;2023-06-22T05:08:02;13.73;;;8.18;;
25609;SDS011;13479;49.044;8.716;2023-06-22T05:10:28;14.73;;;8.82;;
25609;SDS011;13479;49.044;8.716;2023-06-22T05:12:53;11.48;;;7.40;;
25609;SDS011;13479;49.044;8.716;2023-06-22T05:15:18;14.23;;;7.53;;
25609;SDS011;13479;49.044;8.716;2023-06-22T05:17:44;15.25;;;7.68;;
25609;SDS011;13479;49.044;8.716;2023-06-22T05:20:10;12.02;;;6.85;;
25609;SDS011;13479;49.044;8.716;2023-06-22T05:22:37;10.82;;;6.45;;
25609;SDS011;13479;49.044;8.716;2023-06-22T05:25:07;11.85;;;6.82;;
25609;SDS011;13479;49.044;8.716;2023-06-22T05:27:34;10.38;;;6.05;;
25609;SDS011;13479;49.044;8.716;2023-06-22T05:29:59;9.73;;;6.43;;
25609;SDS011;13479;49.044;8.716;2023-06-22T05:32:24;10.57;;;6.32;;
25609;SDS011;13479;49.044;8.716;2023-06-22T05:34:49;11.13;;;6.63;;
25609;SDS011;13479;49.044;8.716;2023-06-22T05:37:15;8.30;;;5.85;;
25609;SDS011;13479;49.044;8.716;2023-06-22T05:39:40;11.02;;;6.20;;
25609;SDS011;13479;49.044;8.716;2023-06-22T05:42:05;10.45;;;5.78;;
25609;SDS011;13479;49.044;8.716;2023-06-22T05:44:33;12.55;;;5.75;;
25609;SDS011;13479;49.044;8.716;2023-06-22T05:46:58;11.73;;;5.80;;
25609;SDS011;13479;49.044;8.716;2023-06-22T05:49:24;12.27;;;5.93;;
25609;SDS011;13479;49.044;8.716;2023-06-22T05:51:58;9.02;;;6.55;;
25609;SDS011;13479;49.044;8.716;2023-06-22T05:54:23;13.63;;;6.80;;
25609;SDS011;13479;49.044;8.716;2023-06-22T05:56:48;10.02;;;6.50;;
25609;SDS011;13479;49.044;8.716;2023-06-22T05:59:14;12.00;;;6.00;;
25609;SDS011;13479;49.044;8.716;2023-06-22T06:01:39;9.07;;;5.57;;
25609;SDS011;13479;49.044;8.716;2023-06-22T06:04:05;11.48;;;5.55;;
25609;SDS011;13479;49.044;8.716;2023-06-22T06:06:33;11.07;;;5.95;;
25609;SDS011;13479;49.044;8.716;2023-06-22T06:08:59;8.43;;;5.40;;
25609;SDS011;13479;49.044;8.716;2023-06-22T06:11:25;10.20;;;5.88;;
25609;SDS011;13479;49.044;8.716;2023-06-22T06:13:51;10.30;;;5.72;;
25609;SDS011;13479;49.044;8.716;2023-06-22T06:16:16;11.27;;;5.60;;
25609;SDS011;13479;49.044;8.716;2023-06-22T06:18:41;16.70;;;6.10;;
25609;SDS011;13479;49.044;8.716;2023-06-22T06:21:06;10.20;;;5.40;;
25609;SDS011;13479;49.044;8.716;2023-06-22T06:23:32;12.50;;;6.07;;
25609;SDS011;13479;49.044;8.716;2023-06-22T06:25:57;9.93;;;5.50;;
25609;SDS011;13479;49.044;8.716;2023-06-22T06:28:24;9.50;;;6.07;;
25609;SDS011;13479;49.044;8.716;2023-06-22T06:30:50;9.90;;;5.05;;
25609;SDS011;13479;49.044;8.716;2023-06-22T06:33:16;10.18;;;5.10;;
25609;SDS011;13479;49.044;8.716;2023-06-22T06:35:42;10.15;;;4.70;;
25609;SDS011;13479;49.044;8.716;2023-06-22T06:38:07;8.52;;;4.50;;
25609;SDS011;13479;49.044;8.716;2023-06-22T06:40:32;6.95;;;4.80;;
25609;SDS011;13479;49.044;8.716;2023-06-22T06:42:58;10.15;;;4.50;;
25609;SDS011;13479;49.044;8.716;2023-06-22T06:45:23;8.25;;;4.15;;
25609;SDS011;13479;49.044;8.716;2023-06-22T06:47:50;6.13;;;4.20;;
25609;SDS011;13479;49.044;8.716;2023-06-22T06:50:16;8.13;;;3.90;;
25609;SDS011;13479;49.044;8.716;2023-06-22T06:52:41;9.75;;;4.57;;
25609;SDS011;13479;49.044;8.716;2023-06-22T06:55:07;9.57;;;4.45;;
25609;SDS011;13479;49.044;8.716;2023-06-22T06:57:36;4.20;;;2.83;;
25609;SDS011;13479;49.044;8.716;2023-06-22T07:00:02;8.88;;;4.30;;
25609;SDS011;13479;49.044;8.716;2023-06-22T07:02:33;7.45;;;3.97;;
25609;SDS011;13479;49.044;8.716;2023-06-22T07:04:58;10.90;;;4.07;;
25609;SDS011;13479;49.044;8.716;2023-06-22T07:07:24;9.15;;;4.35;;
25609;SDS011;13479;49.044;8.716;2023-06-22T07:09:49;10.65;;;4.15;;
25609;SDS011;13479;49.044;8.716;2023-06-22T07:12:14;7.25;;;4.57;;
25609;SDS011;13479;49.044;8.716;2023-06-22T07:14:40;12.07;;;4.70;;
25609;SDS011;13479;49.044;8.716;2023-06-22T07:17:05;7.60;;;4.07;;
25609;SDS011;13479;49.044;8.716;2023-06-22T07:19:32;5.93;;;3.20;;
25609;SDS011;13479;49.044;8.716;2023-06-22T07:21:58;5.45;;;3.08;;
25609;SDS011;13479;49.044;8.716;2023-06-22T07:24:23;8.48;;;4.13;;
25609;SDS011;13479;49.044;8.716;2023-06-22T07:26:49;7.47;;;3.67;;
25609;SDS011;13479;49.044;8.716;2023-06-22T07:29:18;7.82;;;4.07;;
25609;SDS011;13479;49.044;8.716;2023-06-22T07:31:48;5.28;;;3.03;;
25609;SDS011;13479;49.044;8.716;2023-06-22T07:34:15;6.20;;;3.90;;
25609;SDS011;13479;49.044;8.716;2023-06-22T07:36:40;6.80;;;3.90;;
25609;SDS011;13479;49.044;8.716;2023-06-22T07:39:05;8.38;;;3.83;;
25609;SDS011;13479;49.044;8.716;2023-06-22T07:41:31;3.05;;;1.65;;
25609;SDS011;13479;49.044;8.716;2023-06-22T07:43:56;11.00;;;3.80;;
25609;SDS011;13479;49.044;8.716;2023-06-22T07:46:22;5.15;;;2.50;;
25609;SDS011;13479;49.044;8.716;2023-06-22T07:48:47;7.57;;;3.83;;
25609;SDS011;13479;49.044;8.716;2023-06-22T07:51:12;7.97;;;3.80;;
25609;SDS011;13479;49.044;8.716;2023-06-22T07:53:39;3.75;;;1.92;;
25609;SDS011;13479;49.044;8.716;2023-06-22T07:56:05;5.65;;;3.45;;
25609;SDS011;13479;49.044;8.716;2023-06-22T07:58:32;9.25;;;3.65;;
25609;SDS011;13479;49.044;8.716;2023-06-22T08:00:58;5.55;;;3.08;;
25609;SDS011;13479;49.044;8.716;2023-06-22T08:03:23;6.80;;;3.05;;
25609;SDS011;13479;49.044;8.716;2023-06-22T08:05:48;6.00;;;2.78;;
25609;SDS011;13479;49.044;8.716;2023-06-22T08:08:14;8.98;;;3.30;;
25609;SDS011;13479;49.044;8.716;2023-06-22T08:10:39;5.15;;;2.20;;
25609;SDS011;13479;49.044;8.716;2023-06-22T08:13:05;8.50;;;3.22;;
25609;SDS011;13479;49.044;8.716;2023-06-22T08:15:31;4.22;;;1.90;;
25609;SDS011;13479;49.044;8.716;2023-06-22T08:17:56;9.85;;;3.72;;
25609;SDS011;13479;49.044;8.716;2023-06-22T08:20:22;9.02;;;3.17;;
25609;SDS011;13479;49.044;8.716;2023-06-22T08:22:48;7.10;;;3.72;;
25609;SDS011;13479;49.044;8.716;2023-06-22T08:25:13;8.35;;;3.40;;
25609;SDS011;13479;49.044;8.716;2023-06-22T08:27:38;8.75;;;3.58;;
25609;SDS011;13479;49.044;8.716;2023-06-22T08:30:04;6.60;;;3.70;;
25609;SDS011;13479;49.044;8.716;2023-06-22T08:32:31;6.85;;;3.55;;
25609;SDS011;13479;49.044;8.716;2023-06-22T08:34:57;6.72;;;2.35;;
25609;SDS011;13479;49.044;8.716;2023-06-22T08:37:23;6.28;;;3.60;;
25609;SDS011;13479;49.044;8.716;2023-06-22T08:39:55;9.05;;;3.65;;
25609;SDS011;13479;49.044;8.716;2023-06-22T08:42:24;7.65;;;3.63;;
25609;SDS011;13479;49.044;8.716;2023-06-22T08:44:50;6.15;;;4.05;;
25609;SDS011;13479;49.044;8.716;2023-06-22T08:47:15;8.85;;;4.03;;
25609;SDS011;13479;49.044;8.716;2023-06-22T08:49:41;10.13;;;3.45;;
25609;SDS011;13479;49.044;8.716;2023-06-22T08:52:06;6.68;;;3.55;;
25609;SDS011;13479;49.044;8.716;2023-06-22T08:54:32;9.05;;;4.45;;
25609;SDS011;13479;49.044;8.716;2023-06-22T08:56:59;10.02;;;4.55;;
25609;SDS011;13479;49.044;8.716;2023-06-22T08:59:25;7.82;;;4.13;;
25609;SDS011;13479;49.044;8.716;2023-06-22T09:01:50;9.80;;;4.78;;
25609;SDS011;13479;49.044;8.716;2023-06-22T09:04:15;8.25;;;4.63;;
25609;SDS011;13479;49.044;8.716;2023-06-22T09:06:41;13.40;;;4.55;;
25609;SDS011;13479;49.044;8.716;2023-06-22T09:09:10;8.93;;;4.40;;
25609;SDS011;13479;49.044;8.716;2023-06-22T09:11:37;7.47;;;4.00;;
25609;SDS011;13479;49.044;8.716;2023-06-22T09:14:02;7.28;;;3.90;;
25609;SDS011;13479;49.044;8.716;2023-06-22T09:16:28;11.48;;;4.85;;
25609;SDS011;13479;49.044;8.716;2023-06-22T09:18:54;11.45;;;4.40;;
25609;SDS011;13479;49.044;8.716;2023-06-22T09:21:19;8.98;;;5.07;;
25609;SDS011;13479;49.044;8.716;2023-06-22T09:23:44;9.77;;;4.50;;
25609;SDS011;13479;49.044;8.716;2023-06-22T09:26:11;11.68;;;4.53;;
25609;SDS011;13479;49.044;8.716;2023-06-22T09:28:37;11.80;;;3.72;;
25609;SDS011;13479;49.044;8.716;2023-06-22T09:31:02;13.88;;;4.63;;
25609;SDS011;13479;49.044;8.716;2023-06-22T09:33:28;7.20;;;4.32;;
25609;SDS011;13479;49.044;8.716;2023-06-22T09:35:53;7.65;;;4.30;;
25609;SDS011;13479;49.044;8.716;2023-06-22T09:38:18;11.80;;;4.40;;
25609;SDS011;13479;49.044;8.716;2023-06-22T09:40:44;8.60;;;4.22;;
25609;SDS011;13479;49.044;8.716;2023-06-22T09:43:09;8.20;;;4.13;;
25609;SDS011;13479;49.044;8.716;2023-06-22T09:45:34;8.35;;;4.20;;
25609;SDS011;13479;49.044;8.716;2023-06-22T09:47:59;9.82;;;4.50;;
25609;SDS011;13479;49.044;8.716;2023-06-22T09:50:25;9.20;;;4.30;;
25609;SDS011;13479;49.044;8.716;2023-06-22T09:52:50;7.78;;;4.22;;
25609;SDS011;13479;49.044;8.716;2023-06-22T09:55:19;9.48;;;4.25;;
25609;SDS011;13479;49.044;8.716;2023-06-22T09:57:47;6.15;;;4.35;;
25609;SDS011;13479;49.044;8.716;2023-06-22T10:00:13;9.57;;;4.13;;
25609;SDS011;13479;49.044;8.716;2023-06-22T10:02:43;9.18;;;4.07;;
25609;SDS011;13479;49.044;8.716;2023-06-22T10:05:09;10.48;;;4.38;;
25609;SDS011;13479;49.044;8.716;2023-06-22T10:07:34;7.38;;;3.75;;
25609;SDS011;13479;49.044;8.716;2023-06-22T10:10:04;9.63;;;4.15;;
25609;SDS011;13479;49.044;8.716;2023-06-22T10:12:30;10.45;;;4.35;;
25609;SDS011;13479;49.044;8.716;2023-06-22T10:14:56;7.75;;;4.15;;
25609;SDS011;13479;49.044;8.716;2023-06-22T10:17:21;7.07;;;3.80;;
25609;SDS011;13479;49.044;8.716;2023-06-22T10:19:46;10.32;;;4.20;;
25609;SDS011;13479;49.044;8.716;2023-06-22T10:22:11;9.43;;;4.55;;
25609;SDS011;13479;49.044;8.716;2023-06-22T10:24:37;12.52;;;4.53;;
25609;SDS011;13479;49.044;8.716;2023-06-22T10:27:03;11.23;;;4.20;;
25609;SDS011;13479;49.044;8.716;2023-06-22T10:29:28;9.27;;;4.18;;
25609;SDS011;13479;49.044;8.716;2023-06-22T10:31:54;12.93;;;4.38;;
25609;SDS011;13479;49.044;8.716;2023-06-22T10:34:19;9.45;;;4.70;;
25609;SDS011;13479;49.044;8.716;2023-06-22T10:36:44;9.20;;;4.25;;
25609;SDS011;13479;49.044;8.716;2023-06-22T10:39:13;12.10;;;4.80;;
25609;SDS011;13479;49.044;8.716;2023-06-22T10:41:38;10.20;;;4.75;;
25609;SDS011;13479;49.044;8.716;2023-06-22T10:44:04;10.80;;;4.60;;
25609;SDS011;13479;49.044;8.716;2023-06-22T10:46:29;10.73;;;4.88;;
25609;SDS011;13479;49.044;8.716;2023-06-22T10:48:54;11.25;;;4.63;;
25609;SDS011;13479;49.044;8.716;2023-06-22T10:51:21;10.10;;;4.80;;
25609;SDS011;13479;49.044;8.716;2023-06-22T10:53:47;10.77;;;4.50;;
25609;SDS011;13479;49.044;8.716;2023-06-22T10:56:12;9.25;;;4.25;;
25609;SDS011;13479;49.044;8.716;2023-06-22T10:58:37;16.70;;;4.35;;
25609;SDS011;13479;49.044;8.716;2023-06-22T11:01:02;10.15;;;4.20;;
25609;SDS011;13479;49.044;8.716;2023-06-22T11:03:28;9.32;;;4.45;;
25609;SDS011;13479;49.044;8.716;2023-06-22T11:05:53;9.43;;;4.57;;
25609;SDS011;13479;49.044;8.716;2023-06-22T11:08:19;7.95;;;4.18;;
25609;SDS011;13479;49.044;8.716;2023-06-22T11:10:44;8.77;;;4.22;;
25609;SDS011;13479;49.044;8.716;2023-06-22T11:13:09;5.45;;;2.85;;
25609;SDS011;13479;49.044;8.716;2023-06-22T11:15:35;7.15;;;3.20;;
25609;SDS011;13479;49.044;8.716;2023-06-22T11:18:01;9.00;;;4.50;;
25609;SDS011;13479;49.044;8.716;2023-06-22T11:20:26;10.77;;;4.40;;
25609;SDS011;13479;49.044;8.716;2023-06-22T11:22:52;9.57;;;4.63;;
25609;SDS011;13479;49.044;8.716;2023-06-22T11:25:18;9.35;;;4.55;;
25609;SDS011;13479;49.044;8.716;2023-06-22T11:27:43;9.75;;;4.50;;
25609;SDS011;13479;49.044;8.716;2023-06-22T11:30:10;12.82;;;4.60;;
25609;SDS011;13479;49.044;8.716;2023-06-22T11:32:35;9.52;;;4.50;;
25609;SDS011;13479;49.044;8.716;2023-06-22T11:35:00;15.45;;;4.10;;
25609;SDS011;13479;49.044;8.716;2023-06-22T11:37:26;10.45;;;4.75;;
25609;SDS011;13479;49.044;8.716;2023-06-22T11:39:51;9.30;;;4.32;;
25609;SDS011;13479;49.044;8.716;2023-06-22T11:42:19;10.15;;;4.50;;
25609;SDS011;13479;49.044;8.716;2023-06-22T11:44:44;10.35;;;4.50;;
25609;SDS011;13479;49.044;8.716;2023-06-22T11:47:10;10.07;;;4.03;;
25609;SDS011;13479;49.044;8.716;2023-06-22T11:49:35;11.63;;;4.85;;
25609;SDS011;13479;49.044;8.716;2023-06-22T11:52:00;12.73;;;4.47;;
25609;SDS011;13479;49.044;8.716;2023-06-22T11:54:25;8.00;;;4.53;;
25609;SDS011;13479;49.044;8.716;2023-06-22T11:56:51;13.68;;;4.90;;
25609;SDS011;13479;49.044;8.716;2023-06-22T11:59:16;7.72;;;4.47;;
25609;SDS011;13479;49.044;8.716;2023-06-22T12:01:41;8.70;;;4.00;;
25609;SDS011;13479;49.044;8.716;2023-06-22T12:04:06;13.23;;;4.70;;
25609;SDS011;13479;49.044;8.716;2023-06-22T12:06:32;12.20;;;4.75;;
25609;SDS011;13479;49.044;8.716;2023-06-22T12:08:58;10.98;;;4.55;;
25609;SDS011;13479;49.044;8.716;2023-06-22T12:11:23;11.15;;;4.20;;
25609;SDS011;13479;49.044;8.716;2023-06-22T12:13:49;13.20;;;4.43;;
25609;SDS011;13479;49.044;8.716;2023-06-22T12:16:14;11.50;;;4.88;;
25609;SDS011;13479;49.044;8.716;2023-06-22T12:18:39;9.50;;;4.72;;
25609;SDS011;13479;49.044;8.716;2023-06-22T12:21:04;14.90;;;4.75;;
25609;SDS011;13479;49.044;8.716;2023-06-22T12:23:30;9.25;;;4.00;;
25609;SDS011;13479;49.044;8.716;2023-06-22T12:25:55;11.60;;;4.13;;
25609;SDS011;13479;49.044;8.716;2023-06-22T12:28:20;10.18;;;4.80;;
25609;SDS011;13479;49.044;8.716;2023-06-22T12:30:45;12.23;;;5.13;;
25609;SDS011;13479;49.044;8.716;2023-06-22T12:33:11;13.05;;;4.57;;
25609;SDS011;13479;49.044;8.716;2023-06-22T12:35:36;11.02;;;4.13;;
25609;SDS011;13479;49.044;8.716;2023-06-22T12:38:01;12.25;;;5.00;;
25609;SDS011;13479;49.044;8.716;2023-06-22T12:40:27;14.57;;;4.70;;
25609;SDS011;13479;49.044;8.716;2023-06-22T12:42:53;10.00;;;4.20;;
25609;SDS011;13479;49.044;8.716;2023-06-22T12:45:18;9.00;;;4.65;;
25609;SDS011;13479;49.044;8.716;2023-06-22T12:47:45;10.63;;;5.03;;
25609;SDS011;13479;49.044;8.716;2023-06-22T12:50:10;10.23;;;4.97;;
25609;SDS011;13479;49.044;8.716;2023-06-22T12:52:36;9.35;;;4.45;;
25609;SDS011;13479;49.044;8.716;2023-06-22T12:55:04;11.43;;;4.80;;
25609;SDS011;13479;49.044;8.716;2023-06-22T12:57:30;9.48;;;4.57;;
25609;SDS011;13479;49.044;8.716;2023-06-22T12:59:56;9.77;;;4.45;;
25609;SDS011;13479;49.044;8.716;2023-06-22T13:02:21;11.57;;;5.07;;
25609;SDS011;13479;49.044;8.716;2023-06-22T13:04:47;12.25;;;5.00;;
25609;SDS011;13479;49.044;8.716;2023-06-22T13:07:12;9.45;;;4.35;;
25609;SDS011;13479;49.044;8.716;2023-06-22T13:09:37;10.57;;;4.70;;
25609;SDS011;13479;49.044;8.716;2023-06-22T13:12:03;10.68;;;4.45;;
25609;SDS011;13479;49.044;8.716;2023-06-22T13:14:29;12.00;;;4.30;;
25609;SDS011;13479;49.044;8.716;2023-06-22T13:16:54;20.10;;;5.20;;
25609;SDS011;13479;49.044;8.716;2023-06-22T13:19:19;11.23;;;4.68;;
25609;SDS011;13479;49.044;8.716;2023-06-22T13:21:44;11.63;;;5.15;;
25609;SDS011;13479;49.044;8.716;2023-06-22T13:24:10;15.75;;;4.70;;
25609;SDS011;13479;49.044;8.716;2023-06-22T13:26:35;10.77;;;4.40;;
25609;SDS011;13479;49.044;8.716;2023-06-22T13:29:00;15.75;;;4.60;;
25609;SDS011;13479;49.044;8.716;2023-06-22T13:31:25;9.45;;;4.00;;
25609;SDS011;13479;49.044;8.716;2023-06-22T13:33:51;9.20;;;4.50;;
25609;SDS011;13479;49.044;8.716;2023-06-22T13:36:17;12.40;;;5.05;;
25609;SDS011;13479;49.044;8.716;2023-06-22T13:38:43;12.00;;;4.80;;
25609;SDS011;13479;49.044;8.716;2023-06-22T13:41:08;17.33;;;4.72;;
25609;SDS011;13479;49.044;8.716;2023-06-22T13:43:33;14.80;;;5.03;;
25609;SDS011;13479;49.044;8.716;2023-06-22T13:45:58;12.95;;;5.10;;
25609;SDS011;13479;49.044;8.716;2023-06-22T13:48:24;9.50;;;4.65;;
25609;SDS011;13479;49.044;8.716;2023-06-22T13:50:50;11.98;;;4.65;;
25609;SDS011;13479;49.044;8.716;2023-06-22T13:53:16;11.30;;;4.75;;
25609;SDS011;13479;49.044;8.716;2023-06-22T13:55:41;10.80;;;4.80;;
25609;SDS011;13479;49.044;8.716;2023-06-22T13:58:07;12.68;;;4.93;;
25609;SDS011;13479;49.044;8.716;2023-06-22T14:00:32;10.35;;;4.40;;
25609;SDS011;13479;49.044;8.716;2023-06-22T14:02:57;8.25;;;4.50;;
25609;SDS011;13479;49.044;8.716;2023-06-22T14:05:23;10.13;;;4.57;;
25609;SDS011;13479;49.044;8.716;2023-06-22T14:07:48;11.27;;;4.97;;
25609;SDS011;13479;49.044;8.716;2023-06-22T14:10:13;10.75;;;5.07;;
25609;SDS011;13479;49.044;8.716;2023-06-22T14:12:38;10.50;;;4.72;;
25609;SDS011;13479;49.044;8.716;2023-06-22T14:15:04;11.95;;;4.90;;
25609;SDS011;13479;49.044;8.716;2023-06-22T14:17:29;11.32;;;4.53;;
25609;SDS011;13479;49.044;8.716;2023-06-22T14:19:55;10.77;;;4.80;;
25609;SDS011;13479;49.044;8.716;2023-06-22T14:22:21;8.85;;;4.72;;
25609;SDS011;13479;49.044;8.716;2023-06-22T14:24:47;11.25;;;4.88;;
25609;SDS011;13479;49.044;8.716;2023-06-22T14:27:12;12.30;;;5.20;;
25609;SDS011;13479;49.044;8.716;2023-06-22T14:29:38;10.77;;;4.65;;
25609;SDS011;13479;49.044;8.716;2023-06-22T14:32:03;11.52;;;5.28;;
25609;SDS011;13479;49.044;8.716;2023-06-22T14:34:31;13.75;;;5.35;;
25609;SDS011;13479;49.044;8.716;2023-06-22T14:36:56;9.98;;;4.95;;
25609;SDS011;13479;49.044;8.716;2023-06-22T14:39:21;13.32;;;5.35;;
25609;SDS011;13479;49.044;8.716;2023-06-22T14:41:46;11.38;;;5.15;;
25609;SDS011;13479;49.044;8.716;2023-06-22T14:44:12;11.77;;;5.25;;
25609;SDS011;13479;49.044;8.716;2023-06-22T14:46:37;12.20;;;5.45;;
25609;SDS011;13479;49.044;8.716;2023-06-22T14:49:02;8.52;;;4.95;;
25609;SDS011;13479;49.044;8.716;2023-06-22T14:51:27;11.98;;;4.90;;
25609;SDS011;13479;49.044;8.716;2023-06-22T14:53:52;15.02;;;5.65;;
25609;SDS011;13479;49.044;8.716;2023-06-22T14:56:18;11.23;;;5.35;;
25609;SDS011;13479;49.044;8.716;2023-06-22T14:58:43;10.70;;;5.65;;
25609;SDS011;13479;49.044;8.716;2023-06-22T15:01:12;12.57;;;6.05;;
25609;SDS011;13479;49.044;8.716;2023-06-22T15:03:38;10.20;;;5.30;;
25609;SDS011;13479;49.044;8.716;2023-06-22T15:06:04;9.98;;;4.95;;
25609;SDS011;13479;49.044;8.716;2023-06-22T15:08:29;11.88;;;5.30;;
25609;SDS011;13479;49.044;8.716;2023-06-22T15:10:55;10.95;;;5.20;;
25609;SDS011;13479;49.044;8.716;2023-06-22T15:13:23;13.50;;;5.15;;
25609;SDS011;13479;49.044;8.716;2023-06-22T15:15:50;15.20;;;5.05;;
25609;SDS011;13479;49.044;8.716;2023-06-22T15:18:15;13.90;;;5.10;;
25609;SDS011;13479;49.044;8.716;2023-06-22T15:20:41;12.15;;;5.20;;
25609;SDS011;13479;49.044;8.716;2023-06-22T15:23:09;12.45;;;5.15;;
25609;SDS011;13479;49.044;8.716;2023-06-22T15:25:35;11.98;;;4.72;;
25609;SDS011;13479;49.044;8.716;2023-06-22T15:28:00;13.63;;;4.78;;
25609;SDS011;13479;49.044;8.716;2023-06-22T15:30:26;10.05;;;4.35;;
25609;SDS011;13479;49.044;8.716;2023-06-22T15:32:51;15.50;;;5.10;;
25609;SDS011;13479;49.044;8.716;2023-06-22T15:35:16;13.02;;;5.00;;
25609;SDS011;13479;49.044;8.716;2023-06-22T15:37:43;11.38;;;4.32;;
25609;SDS011;13479;49.044;8.716;2023-06-22T15:40:09;13.00;;;5.25;;
25609;SDS011;13479;49.044;8.716;2023-06-22T15:42:34;14.57;;;4.75;;
25609;SDS011;13479;49.044;8.716;2023-06-22T15:44:59;14.32;;;4.95;;
25609;SDS011;13479;49.044;8.716;2023-06-22T15:47:25;13.00;;;4.53;;
25609;SDS011;13479;49.044;8.716;2023-06-22T15:49:50;13.57;;;4.70;;
25609;SDS011;13479;49.044;8.716;2023-06-22T15:52:15;12.55;;;4.72;;
25609;SDS011;13479;49.044;8.716;2023-06-22T15:54:43;15.63;;;5.05;;
25609;SDS011;13479;49.044;8.716;2023-06-22T15:57:09;14.70;;;5.18;;
25609;SDS011;13479;49.044;8.716;2023-06-22T15:59:37;10.85;;;4.95;;
25609;SDS011;13479;49.044;8.716;2023-06-22T16:02:06;15.27;;;5.07;;
25609;SDS011;13479;49.044;8.716;2023-06-22T16:04:32;12.70;;;5.28;;
25609;SDS011;13479;49.044;8.716;2023-06-22T16:06:58;12.48;;;4.70;;
25609;SDS011;13479;49.044;8.716;2023-06-22T16:09:23;10.18;;;5.15;;
25609;SDS011;13479;49.044;8.716;2023-06-22T16:11:48;11.65;;;5.05;;
25609;SDS011;13479;49.044;8.716;2023-06-22T16:14:14;12.30;;;4.80;;
25609;SDS011;13479;49.044;8.716;2023-06-22T16:16:39;11.18;;;5.00;;
25609;SDS011;13479;49.044;8.716;2023-06-22T16:19:04;14.35;;;4.68;;
25609;SDS011;13479;49.044;8.716;2023-06-22T16:21:29;12.90;;;4.53;;
25609;SDS011;13479;49.044;8.716;2023-06-22T16:23:55;14.18;;;5.00;;
25609;SDS011;13479;49.044;8.716;2023-06-22T16:26:20;11.90;;;5.00;;
25609;SDS011;13479;49.044;8.716;2023-06-22T16:28:45;11.52;;;4.70;;
25609;SDS011;13479;49.044;8.716;2023-06-22T16:31:10;12.88;;;5.28;;
25609;SDS011;13479;49.044;8.716;2023-06-22T16:33:36;12.70;;;4.90;;
25609;SDS011;13479;49.044;8.716;2023-06-22T16:36:01;10.77;;;4.90;;
25609;SDS011;13479;49.044;8.716;2023-06-22T16:38:26;15.32;;;5.10;;
25609;SDS011;13479;49.044;8.716;2023-06-22T16:40:52;12.75;;;5.20;;
25609;SDS011;13479;49.044;8.716;2023-06-22T16:43:17;11.45;;;4.93;;
25609;SDS011;13479;49.044;8.716;2023-06-22T16:45:42;12.95;;;5.15;;
25609;SDS011;13479;49.044;8.716;2023-06-22T16:48:08;15.23;;;5.47;;
25609;SDS011;13479;49.044;8.716;2023-06-22T16:50:33;12.43;;;5.30;;
25609;SDS011;13479;49.044;8.716;2023-06-22T16:52:58;12.90;;;5.25;;
25609;SDS011;13479;49.044;8.716;2023-06-22T16:55:23;13.43;;;5.00;;
25609;SDS011;13479;49.044;8.716;2023-06-22T16:57:50;15.35;;;5.32;;
25609;SDS011;13479;49.044;8.716;2023-06-22T17:00:16;11.75;;;5.05;;
25609;SDS011;13479;49.044;8.716;2023-06-22T17:02:43;16.52;;;4.78;;
25609;SDS011;13479;49.044;8.716;2023-06-22T17:05:12;11.85;;;4.85;;
25609;SDS011;13479;49.044;8.716;2023-06-22T17:07:39;11.98;;;4.57;;
25609;SDS011;13479;49.044;8.716;2023-06-22T17:10:12;14.75;;;5.22;;
25609;SDS011;13479;49.044;8.716;2023-06-22T17:12:37;17.98;;;5.13;;
25609;SDS011;13479;49.044;8.716;2023-06-22T17:15:04;15.77;;;5.22;;
25609;SDS011;13479;49.044;8.716;2023-06-22T17:17:33;12.23;;;4.80;;
25609;SDS011;13479;49.044;8.716;2023-06-22T17:20:01;12.95;;;5.00;;
25609;SDS011;13479;49.044;8.716;2023-06-22T17:22:28;15.30;;;5.20;;
25609;SDS011;13479;49.044;8.716;2023-06-22T17:25:00;15.27;;;5.40;;
25609;SDS011;13479;49.044;8.716;2023-06-22T17:27:30;12.48;;;4.70;;
25609;SDS011;13479;49.044;8.716;2023-06-22T17:30:05;17.20;;;5.40;;
25609;SDS011;13479;49.044;8.716;2023-06-22T17:32:35;15.00;;;5.60;;
25609;SDS011;13479;49.044;8.716;2023-06-22T17:35:01;12.57;;;5.22;;
25609;SDS011;13479;49.044;8.716;2023-06-22T17:37:32;13.85;;;5.13;;
25609;SDS011;13479;49.044;8.716;2023-06-22T17:39:58;15.25;;;5.60;;
25609;SDS011;13479;49.044;8.716;2023-06-22T17:42:23;13.35;;;4.63;;
25609;SDS011;13479;49.044;8.716;2023-06-22T17:44:49;14.18;;;4.47;;
25609;SDS011;13479;49.044;8.716;2023-06-22T17:47:14;15.10;;;4.80;;
25609;SDS011;13479;49.044;8.716;2023-06-22T17:49:47;14.82;;;4.10;;
25609;SDS011;13479;49.044;8.716;2023-06-22T17:52:16;14.80;;;4.28;;
25609;SDS011;13479;49.044;8.716;2023-06-22T17:54:42;12.85;;;4.05;;
25609;SDS011;13479;49.044;8.716;2023-06-22T17:57:14;9.07;;;3.45;;
25609;SDS011;13479;49.044;8.716;2023-06-22T17:59:41;12.13;;;3.63;;
25609;SDS011;13479;49.044;8.716;2023-06-22T18:02:06;11.85;;;3.13;;
25609;SDS011;13479;49.044;8.716;2023-06-22T18:04:33;11.77;;;3.50;;
25609;SDS011;13479;49.044;8.716;2023-06-22T18:06:59;9.38;;;3.08;;
25609;SDS011;13479;49.044;8.716;2023-06-22T18:09:25;9.60;;;3.00;;
25609;SDS011;13479;49.044;8.716;2023-06-22T18:11:52;9.70;;;2.75;;
25609;SDS011;13479;49.044;8.716;2023-06-22T18:14:21;6.97;;;2.60;;
25609;SDS011;13479;49.044;8.716;2023-06-22T18:16:48;8.82;;;2.80;;
25609;SDS011;13479;49.044;8.716;2023-06-22T18:19:15;10.90;;;2.70;;
25609;SDS011;13479;49.044;8.716;2023-06-22T18:21:44;9.27;;;2.50;;
25609;SDS011;13479;49.044;8.716;2023-06-22T18:24:11;9.35;;;2.63;;
25609;SDS011;13479;49.044;8.716;2023-06-22T18:26:38;6.20;;;2.60;;
25609;SDS011;13479;49.044;8.716;2023-06-22T18:29:04;12.05;;;2.60;;
25609;SDS011;13479;49.044;8.716;2023-06-22T18:31:29;10.07;;;2.30;;